Time;durP1;ratioP1;P1;durP2;ratioP2;P2;SDS_P1;SDS_P2;PMS_P1;PMS_P2;Temp;Humidity;BMP_temperature;BMP_pressure;BME280_temperature;BME280_humidity;BME280_pressure;Samples;Min_cycle;Max_cycle;Signal;HPM_P1;HPM_P2
2021/03/29 00:01:04;;;;;;;4.73;2.20;;;;;;;8.95;51.31;98051.41;5011983;28;20187;-64
2021/03/29 00:03:30;;;;;;;6.13;2.43;;;;;;;8.97;50.98;98057.28;5010856;28;20183;-64
2021/03/29 00:05:55;;;;;;;4.00;2.33;;;;;;;9.01;50.92;98046.25;5011893;28;20198;-65
2021/03/29 00:08:24;;;;;;;4.93;2.23;;;;;;;9.05;50.95;98050.13;5010802;28;20669;-64
2021/03/29 00:10:52;;;;;;;4.80;2.37;;;;;;;9.08;50.69;98048.94;5012039;28;20266;-64
2021/03/29 00:13:18;;;;;;;3.97;2.00;;;;;;;9.01;50.91;98050.66;5010565;28;20179;-64
2021/03/29 00:15:48;;;;;;;5.60;2.20;;;;;;;8.97;50.89;98060.66;5011585;28;20175;-66
2021/03/29 00:18:14;;;;;;;2.83;2.03;;;;;;;9.01;50.41;98050.66;5010611;28;20924;-68
2021/03/29 00:20:43;;;;;;;3.73;2.10;;;;;;;8.93;50.44;98053.38;5010889;28;20187;-64
2021/03/29 00:23:09;;;;;;;2.37;1.90;;;;;;;8.87;50.77;98054.94;5011480;28;20690;-64
2021/03/29 00:25:35;;;;;;;4.27;2.03;;;;;;;8.92;50.45;98054.38;5010459;28;20198;-64
2021/03/29 00:28:01;;;;;;;2.77;2.00;;;;;;;9.00;50.29;98054.28;5011909;28;20203;-64
2021/03/29 00:30:30;;;;;;;4.37;2.03;;;;;;;9.06;50.17;98061.38;5010459;28;20537;-64
2021/03/29 00:32:56;;;;;;;2.37;1.90;;;;;;;9.07;49.86;98058.59;5010680;28;20182;-64
2021/03/29 00:35:24;;;;;;;4.63;2.07;;;;;;;9.02;50.01;98063.56;5010196;28;20226;-64
2021/03/29 00:37:52;;;;;;;3.90;2.20;;;;;;;9.02;49.80;98058.34;5011693;28;20206;-64
2021/03/29 00:40:18;;;;;;;3.47;2.33;;;;;;;9.05;49.97;98057.97;5010591;28;20175;-64
2021/03/29 00:42:47;;;;;;;4.77;2.43;;;;;;;9.13;50.09;98054.44;5011178;28;20187;-66
2021/03/29 00:45:19;;;;;;;4.87;2.17;;;;;;;9.14;49.71;98058.63;5010814;28;20603;-69
2021/03/29 00:47:46;;;;;;;5.37;2.37;;;;;;;9.14;49.57;98063.88;5011404;28;20190;-64
2021/03/29 00:50:15;;;;;;;3.90;2.10;;;;;;;9.07;49.92;98070.84;5011256;28;20259;-69
2021/03/29 00:52:41;;;;;;;2.47;1.97;;;;;;;9.07;49.56;98063.00;5011305;28;20183;-64
2021/03/29 00:55:09;;;;;;;3.07;2.10;;;;;;;9.01;49.60;98063.75;5011241;28;20202;-64
2021/03/29 00:57:37;;;;;;;3.17;2.30;;;;;;;9.05;49.52;98071.03;5009916;28;20179;-64
2021/03/29 01:00:14;;;;;;;4.53;2.10;;;;;;;9.04;49.35;98073.81;4995716;28;20250;-64
2021/03/29 01:02:40;;;;;;;5.30;2.40;;;;;;;8.99;48.75;98066.53;5011043;28;20253;-64
2021/03/29 01:05:14;;;;;;;5.43;2.70;;;;;;;8.96;49.10;98064.31;5011849;28;20263;-64
2021/03/29 01:07:40;;;;;;;3.50;2.30;;;;;;;8.88;49.40;98066.22;4992321;28;20183;-65
2021/03/29 01:10:06;;;;;;;3.50;2.23;;;;;;;8.87;49.30;98065.38;5011000;28;20205;-64
2021/03/29 01:12:32;;;;;;;4.33;2.23;;;;;;;8.93;49.40;98066.47;4992648;28;20683;-64
2021/03/29 01:14:58;;;;;;;2.53;2.07;;;;;;;8.88;49.29;98069.63;4993409;28;20187;-64
2021/03/29 01:17:29;;;;;;;3.53;2.30;;;;;;;8.82;49.66;98065.13;4992033;28;20238;-64
2021/03/29 01:20:01;;;;;;;3.33;2.30;;;;;;;8.82;49.64;98066.94;5010627;28;20217;-64
2021/03/29 01:22:33;;;;;;;3.53;2.20;;;;;;;8.82;49.26;98072.97;5009791;28;20221;-64
2021/03/29 01:25:10;;;;;;;3.97;2.13;;;;;;;8.79;49.52;98064.69;5014297;28;20176;-63
2021/03/29 01:27:47;;;;;;;4.13;2.40;;;;;;;8.79;49.52;98069.94;5009265;28;20168;-64
2021/03/29 01:30:14;;;;;;;3.07;2.00;;;;;;;8.70;49.80;98069.22;4997029;28;20178;-69
2021/03/29 01:32:41;;;;;;;4.80;2.20;;;;;;;8.68;49.72;98069.41;4995811;28;20190;-64
2021/03/29 01:35:20;;;;;;;7.17;2.83;;;;;;;8.69;49.64;98067.63;5014858;28;20183;-64
2021/03/29 01:37:47;;;;;;;3.73;1.87;;;;;;;8.69;49.86;98067.63;5014251;28;20217;-64
2021/03/29 01:40:18;;;;;;;2.97;2.20;;;;;;;8.71;49.92;98073.44;5013959;28;20183;-66
2021/03/29 01:42:45;;;;;;;3.77;1.93;;;;;;;8.64;50.05;98081.19;5014376;28;20172;-64
2021/03/29 01:45:12;;;;;;;4.10;2.17;;;;;;;8.62;50.08;98077.97;5013679;28;20206;-64
2021/03/29 01:47:39;;;;;;;3.63;2.30;;;;;;;8.58;50.32;98078.53;5001195;28;20307;-64
2021/03/29 01:50:07;;;;;;;3.90;2.50;;;;;;;8.56;50.43;98072.66;4995880;28;20213;-67
2021/03/29 01:52:33;;;;;;;4.17;2.23;;;;;;;8.40;50.56;98073.66;5012759;28;20199;-65
2021/03/29 01:55:00;;;;;;;3.33;1.97;;;;;;;8.48;50.25;98068.34;4996561;28;20230;-64
2021/03/29 01:57:25;;;;;;;3.80;2.07;;;;;;;8.58;50.28;98074.09;5013408;28;20244;-64
2021/03/29 01:59:51;;;;;;;2.20;2.00;;;;;;;8.52;50.16;98076.66;5014092;28;20223;-63
2021/03/29 02:02:17;;;;;;;2.57;1.73;;;;;;;8.43;50.56;98075.09;5013928;28;20175;-68
2021/03/29 02:04:42;;;;;;;4.07;2.37;;;;;;;8.40;50.58;98067.63;4996595;28;20187;-64
2021/03/29 02:07:09;;;;;;;2.43;2.10;;;;;;;8.38;50.53;98072.22;5013512;28;20672;-64
2021/03/29 02:09:35;;;;;;;2.40;1.90;;;;;;;8.29;50.58;98072.28;5012866;28;20219;-64
2021/03/29 02:12:04;;;;;;;3.87;2.10;;;;;;;8.25;50.91;98065.78;5013938;28;20183;-63
2021/03/29 02:14:31;;;;;;;5.17;2.37;;;;;;;8.24;51.16;98073.81;5013090;28;20704;-64
2021/03/29 02:16:57;;;;;;;4.23;1.90;;;;;;;8.26;50.75;98071.81;5014059;28;20193;-64
2021/03/29 02:19:24;;;;;;;5.50;1.97;;;;;;;8.23;50.93;98073.00;5012976;28;20190;-64
2021/03/29 02:21:51;;;;;;;4.67;2.13;;;;;;;8.36;50.42;98069.78;5013713;28;20637;-64
2021/03/29 02:24:17;;;;;;;2.30;1.80;;;;;;;8.35;50.52;98073.41;5013320;28;20195;-69
2021/03/29 02:26:44;;;;;;;4.03;2.00;;;;;;;8.36;50.43;98076.84;5013700;28;20683;-64
2021/03/29 02:29:10;;;;;;;2.40;2.00;;;;;;;8.29;50.63;98072.28;4995750;28;20282;-63
2021/03/29 02:31:36;;;;;;;3.20;1.90;;;;;;;8.19;51.12;98076.16;5012680;28;20268;-63
2021/03/29 02:34:04;;;;;;;3.33;2.07;;;;;;;8.19;51.38;98076.94;5013088;28;20638;-65
2021/03/29 02:36:30;;;;;;;3.60;2.30;;;;;;;8.15;51.54;98074.88;5011375;28;20537;-64
2021/03/29 02:38:57;;;;;;;2.53;1.80;;;;;;;8.10;52.04;98074.63;5013010;28;20179;-64
2021/03/29 02:41:26;;;;;;;3.37;2.43;;;;;;;8.02;52.34;98074.72;5012786;28;20238;-64
2021/03/29 02:43:52;;;;;;;5.57;2.13;;;;;;;8.02;52.59;98072.09;4995589;28;20538;-64
2021/03/29 02:46:23;;;;;;;3.03;2.23;;;;;;;8.02;52.55;98072.91;5013477;28;20198;-69
2021/03/29 02:48:49;;;;;;;4.43;2.60;;;;;;;8.01;52.78;98073.91;4995276;28;20614;-65
2021/03/29 02:51:16;;;;;;;4.63;2.20;;;;;;;8.14;52.04;98068.84;4979200;28;20614;-64
2021/03/29 02:53:52;;;;;;;2.87;2.23;;;;;;;7.97;52.74;98072.59;5013061;28;20278;-64
2021/03/29 02:56:21;;;;;;;4.97;2.00;;;;;;;7.80;53.13;98071.16;5012432;28;20266;-68
2021/03/29 02:58:56;;;;;;;2.13;2.00;;;;;;;7.76;53.17;98077.69;5012725;28;20223;-63
2021/03/29 03:01:29;;;;;;;5.70;2.60;;;;;;;7.71;53.15;98073.03;5003117;28;20229;-64
2021/03/29 03:03:55;;;;;;;2.50;2.27;;;;;;;7.75;53.37;98078.69;5012971;28;20179;-63
2021/03/29 03:06:28;;;;;;;2.67;2.33;;;;;;;7.64;53.51;98084.31;5012693;28;20183;-64
2021/03/29 03:08:53;;;;;;;4.87;2.30;;;;;;;7.68;53.18;98086.44;5012750;28;20206;-64
2021/03/29 03:11:20;;;;;;;4.43;2.40;;;;;;;7.74;52.69;98082.31;5012265;28;20187;-68
2021/03/29 03:13:48;;;;;;;8.73;2.50;;;;;;;7.82;52.57;98085.66;5012955;28;20192;-65
2021/03/29 03:16:14;;;;;;;3.60;2.40;;;;;;;7.71;53.22;98096.50;5012651;28;20177;-63
2021/03/29 03:18:40;;;;;;;5.67;2.43;;;;;;;7.63;53.95;98088.75;5011898;28;20267;-63
2021/03/29 03:21:06;;;;;;;3.23;2.23;;;;;;;7.58;54.32;98093.66;5012417;28;20645;-64
2021/03/29 03:23:32;;;;;;;3.80;2.43;;;;;;;7.45;54.69;98091.66;5012397;28;20229;-64
2021/03/29 03:25:58;;;;;;;2.87;2.20;;;;;;;7.45;54.66;98096.88;5012584;28;20183;-64
2021/03/29 03:28:25;;;;;;;3.63;2.40;;;;;;;7.29;55.18;98091.78;5011397;28;20207;-64
2021/03/29 03:30:56;;;;;;;4.80;2.60;;;;;;;7.35;55.25;98092.88;5012938;28;20521;-63
2021/03/29 03:33:24;;;;;;;5.53;2.37;;;;;;;7.36;54.97;98099.69;5011254;28;20523;-64
2021/03/29 03:35:52;;;;;;;5.67;2.70;;;;;;;7.36;55.02;98100.50;5012028;28;20175;-63
2021/03/29 03:38:28;;;;;;;3.50;2.70;;;;;;;7.30;55.55;98103.03;5011885;28;20266;-69
2021/03/29 03:40:57;;;;;;;4.67;2.37;;;;;;;7.56;55.49;98097.44;5012181;28;20206;-63
2021/03/29 03:43:26;;;;;;;5.10;2.60;;;;;;;7.34;56.71;98099.09;4993746;28;20190;-64
2021/03/29 03:46:00;;;;;;;5.47;2.90;;;;;;;7.31;57.65;98099.41;5012064;28;20180;-63
2021/03/29 03:48:26;;;;;;;3.73;2.80;;;;;;;7.06;58.81;98103.97;5011457;28;20285;-63
2021/03/29 03:50:53;;;;;;;3.20;2.87;;;;;;;6.90;59.18;98099.69;5012444;28;20640;-64
2021/03/29 03:53:22;;;;;;;5.23;3.10;;;;;;;6.93;58.67;98098.50;5011467;28;20185;-69
2021/03/29 03:55:57;;;;;;;3.63;2.40;;;;;;;7.02;57.69;98100.09;5011793;28;20630;-64
2021/03/29 03:58:27;;;;;;;4.57;2.63;;;;;;;7.01;58.03;98108.91;5011059;28;20229;-64
2021/03/29 04:00:56;;;;;;;3.97;2.90;;;;;;;6.92;57.82;98107.31;5012265;28;20598;-64
2021/03/29 04:03:21;;;;;;;5.27;3.20;;;;;;;6.83;58.26;98108.34;4995431;28;20198;-65
2021/03/29 04:05:47;;;;;;;4.57;2.67;;;;;;;6.89;58.47;98111.06;5011752;28;20648;-64
2021/03/29 04:08:13;;;;;;;6.50;2.93;;;;;;;6.83;59.06;98108.34;5012175;28;20214;-64
2021/03/29 04:13:09;;;;;;;3.93;3.00;;;;;;;6.70;59.59;98111.47;5011781;28;20187;-64
2021/03/29 04:15:34;;;;;;;4.93;2.60;;;;;;;6.68;59.52;98113.47;5011227;28;20175;-64
2021/03/29 04:18:00;;;;;;;3.03;2.60;;;;;;;6.81;58.75;98113.72;5011820;28;20189;-65
2021/03/29 04:20:25;;;;;;;6.03;2.77;;;;;;;6.80;57.88;98114.69;5010562;28;20261;-64
2021/03/29 04:22:51;;;;;;;10.43;2.83;;;;;;;6.87;57.60;98109.59;5011651;28;20201;-64
2021/03/29 04:25:16;;;;;;;2.70;2.13;;;;;;;6.99;56.17;98111.66;5010936;28;20266;-68
2021/03/29 04:27:42;;;;;;;2.40;2.20;;;;;;;7.06;55.64;98109.19;5011196;28;20278;-64
2021/03/29 04:30:11;;;;;;;5.47;2.20;;;;;;;7.16;55.45;98115.00;5011523;28;20662;-64
2021/03/29 04:32:36;;;;;;;3.03;2.10;;;;;;;7.06;55.43;98114.41;5010376;28;20186;-64
2021/03/29 04:35:03;;;;;;;2.57;2.03;;;;;;;7.13;55.04;98117.97;4994051;28;20183;-64
2021/03/29 04:37:28;;;;;;;4.13;2.20;;;;;;;7.19;55.13;98121.69;4977976;28;20175;-64
2021/03/29 04:39:53;;;;;;;3.60;2.67;;;;;;;7.14;56.14;98124.78;5011450;28;20251;-64
2021/03/29 04:42:19;;;;;;;3.63;2.60;;;;;;;7.18;56.46;98122.66;4993488;28;20696;-68
2021/03/29 04:44:45;;;;;;;3.77;2.60;;;;;;;7.28;57.09;98124.06;5011491;28;20219;-64
2021/03/29 04:47:11;;;;;;;5.00;2.70;;;;;;;7.20;56.69;98128.50;5011394;28;20606;-64
2021/03/29 04:49:36;;;;;;;2.90;2.40;;;;;;;7.19;57.33;98122.47;5010115;28;20213;-64
2021/03/29 04:52:04;;;;;;;5.50;2.93;;;;;;;7.25;57.25;98128.78;5011533;28;20270;-64
2021/03/29 04:54:29;;;;;;;5.40;2.67;;;;;;;7.16;58.33;98135.03;5010164;28;20718;-65
2021/03/29 04:56:54;;;;;;;6.60;3.20;;;;;;;7.14;58.74;98132.59;5011315;28;20179;-64
2021/03/29 04:59:21;;;;;;;4.33;2.77;;;;;;;7.07;59.24;98136.88;5012617;28;20227;-69
2021/03/29 05:01:47;;;;;;;4.67;2.90;;;;;;;7.05;59.29;98136.25;5015931;28;20175;-63
2021/03/29 05:04:12;;;;;;;3.70;2.97;;;;;;;7.12;59.36;98141.59;5015282;28;20182;-63
2021/03/29 05:06:38;;;;;;;4.17;2.97;;;;;;;7.07;59.56;98144.72;5014625;28;20187;-63
2021/03/29 05:09:03;;;;;;;3.70;3.30;;;;;;;7.16;59.38;98137.66;5015131;28;20210;-64
2021/03/29 05:11:35;;;;;;;9.47;3.20;;;;;;;7.08;59.54;98138.50;5013937;28;20195;-64
2021/03/29 05:14:00;;;;;;;4.80;3.30;;;;;;;6.91;60.21;98136.97;5015169;28;20178;-64
2021/03/29 05:16:26;;;;;;;5.07;3.03;;;;;;;7.00;59.68;98138.56;5014529;28;20171;-64
2021/03/29 05:18:51;;;;;;;6.13;3.20;;;;;;;7.00;59.75;98146.38;5015084;28;20183;-64
2021/03/29 05:21:16;;;;;;;7.60;3.30;;;;;;;7.14;59.00;98142.22;5014613;28;20185;-64
2021/03/29 05:23:42;;;;;;;5.70;2.73;;;;;;;7.23;57.79;98141.19;5013639;28;20191;-66
2021/03/29 05:26:07;;;;;;;2.93;2.50;;;;;;;7.29;56.86;98153.56;5010096;28;20184;-65
2021/03/29 05:28:33;;;;;;;4.53;2.70;;;;;;;7.45;55.56;98151.66;5004826;28;20222;-65
2021/03/29 05:30:58;;;;;;;3.53;2.37;;;;;;;7.53;55.14;98148.16;5003215;28;20194;-65
2021/03/29 05:33:23;;;;;;;5.27;2.87;;;;;;;7.66;54.75;98158.84;4992153;28;20180;-68
2021/03/29 05:35:49;;;;;;;3.87;2.67;;;;;;;7.73;54.94;98157.19;5007985;28;20188;-65
2021/03/29 05:38:14;;;;;;;3.47;2.50;;;;;;;7.67;56.04;98162.28;5008383;28;20191;-65
2021/03/29 05:40:40;;;;;;;4.87;2.97;;;;;;;7.82;56.80;98166.56;5013977;28;20273;-65
2021/03/29 05:43:06;;;;;;;7.30;3.50;;;;;;;7.74;57.90;98166.63;5014257;28;20171;-65
2021/03/29 05:45:32;;;;;;;4.80;2.90;;;;;;;7.80;57.89;98163.28;5013747;28;20270;-65
2021/03/29 05:47:58;;;;;;;5.73;3.10;;;;;;;7.87;57.42;98158.19;5014226;28;20262;-65
2021/03/29 05:50:24;;;;;;;3.93;2.57;;;;;;;7.79;56.81;98153.06;5013362;28;20357;-67
2021/03/29 05:52:49;;;;;;;3.93;2.70;;;;;;;7.74;55.71;98152.78;5014314;28;20259;-66
2021/03/29 05:55:35;;;;;;;4.10;2.23;;;;;;;7.93;54.99;98160.09;5013926;28;20187;-65
2021/03/29 06:00:56;;;;;;;6.53;2.60;;;;;;;8.08;54.04;98153.13;5013543;28;20172;-65
2021/03/29 06:03:36;;;;;;;5.40;2.30;;;;;;;8.14;54.48;98152.41;4978424;28;20282;-68
2021/03/29 06:06:11;;;;;;;3.30;2.33;;;;;;;8.30;54.10;98160.13;5014161;28;20179;-65
2021/03/29 06:08:45;;;;;;;4.70;2.47;;;;;;;8.38;53.96;98159.25;5013124;28;20649;-65
2021/03/29 06:11:22;;;;;;;3.93;2.80;;;;;;;8.47;53.70;98165.22;5013664;28;20163;-65
2021/03/29 06:14:05;;;;;;;4.10;2.73;;;;;;;8.38;54.32;98164.47;5013913;28;20179;-65
2021/03/29 06:16:30;;;;;;;3.00;2.70;;;;;;;8.28;55.07;98174.34;5012984;28;20172;-65
2021/03/29 06:18:56;;;;;;;5.13;2.60;;;;;;;8.23;55.23;98179.28;5014033;28;20598;-65
2021/03/29 06:21:21;;;;;;;4.87;2.73;;;;;;;8.33;54.14;98169.41;5012664;28;20187;-69
2021/03/29 06:23:58;;;;;;;3.17;2.40;;;;;;;8.44;53.56;98179.44;5013514;28;20533;-66
2021/03/29 06:26:30;;;;;;;3.87;2.70;;;;;;;8.58;52.90;98183.06;5013755;28;20701;-67
2021/03/29 06:28:56;;;;;;;6.07;2.50;;;;;;;8.55;53.27;98184.22;5013966;28;20607;-66
2021/03/29 06:31:21;;;;;;;7.40;2.83;;;;;;;8.71;53.51;98191.06;5008041;28;20262;-69
2021/03/29 06:33:48;;;;;;;3.73;2.70;;;;;;;8.89;53.11;98193.31;5012568;28;20179;-66
2021/03/29 06:36:51;;;;;;;5.60;2.77;;;;;;;9.01;53.45;98191.88;5012748;28;20309;-66
2021/03/29 06:39:21;;;;;;;5.80;3.47;;;;;;;9.28;53.13;98208.72;4995712;28;20218;-65
2021/03/29 06:41:57;;;;;;;7.60;3.60;;;;;;;9.33;54.29;98215.00;5012944;28;20629;-66
2021/03/29 06:44:27;;;;;;;6.30;3.33;;;;;;;9.30;54.49;98204.13;5012637;28;20187;-69
2021/03/29 06:47:05;;;;;;;7.20;3.40;;;;;;;9.25;54.88;98215.09;5013115;28;20362;-65
2021/03/29 06:49:48;;;;;;;7.37;3.40;;;;;;;9.14;56.22;98218.19;5011863;28;20282;-66
2021/03/29 06:52:28;;;;;;;6.17;3.67;;;;;;;9.10;57.26;98222.97;5009434;28;20233;-66
2021/03/29 06:55:14;;;;;;;8.07;3.70;;;;;;;9.22;57.27;98225.13;5012830;28;20306;-65
2021/03/29 06:57:40;;;;;;;8.03;3.30;;;;;;;9.17;57.44;98220.47;5007815;28;20269;-66
2021/03/29 07:00:06;;;;;;;4.93;3.43;;;;;;;9.34;57.19;98224.50;5012902;28;20638;-66
2021/03/29 07:02:36;;;;;;;5.97;2.80;;;;;;;9.36;55.66;98219.88;5011359;28;20653;-66
2021/03/29 07:05:02;;;;;;;5.23;2.70;;;;;;;9.48;52.27;98221.03;5013236;28;20183;-66
2021/03/29 07:07:29;;;;;;;3.53;2.60;;;;;;;9.62;51.14;98223.81;5011976;28;20179;-66
2021/03/29 07:09:57;;;;;;;6.60;2.43;;;;;;;9.65;50.41;98221.63;5012452;28;20206;-66
2021/03/29 07:12:24;;;;;;;2.93;2.30;;;;;;;9.78;49.76;98224.38;5012363;28;20188;-70
2021/03/29 07:14:51;;;;;;;3.27;2.10;;;;;;;10.01;49.04;98217.16;5012189;28;20266;-65
2021/03/29 07:17:19;;;;;;;5.80;2.43;;;;;;;10.02;48.66;98216.16;5012873;28;20198;-66
2021/03/29 07:19:46;;;;;;;3.67;2.40;;;;;;;10.05;48.38;98214.16;5011831;28;20328;-66
2021/03/29 07:22:13;;;;;;;3.93;2.20;;;;;;;10.34;49.33;98221.91;5011505;28;20194;-67
2021/03/29 07:24:38;;;;;;;5.67;2.77;;;;;;;10.60;48.75;98223.91;5011159;28;20203;-66
2021/03/29 07:27:06;;;;;;;7.07;2.50;;;;;;;10.85;48.35;98219.84;5012076;28;20291;-66
2021/03/29 07:29:34;;;;;;;5.03;2.53;;;;;;;11.10;48.51;98223.63;5011416;28;20198;-66
2021/03/29 07:32:05;;;;;;;5.07;2.57;;;;;;;11.21;47.97;98222.25;5011596;28;20197;-65
2021/03/29 07:34:48;;;;;;;4.30;2.77;;;;;;;11.65;46.51;98234.94;5011050;28;20633;-65
2021/03/29 07:37:31;;;;;;;6.10;2.70;;;;;;;11.77;45.76;98232.59;5008136;28;20546;-66
2021/03/29 07:39:58;;;;;;;9.70;2.47;;;;;;;11.73;45.81;98236.59;5010231;28;20225;-66
2021/03/29 07:42:24;;;;;;;4.53;2.40;;;;;;;11.93;45.60;98240.09;5011353;28;20187;-69
2021/03/29 07:44:53;;;;;;;5.93;2.90;;;;;;;12.03;45.76;98251.88;5011935;28;20258;-66
2021/03/29 07:47:38;;;;;;;3.77;2.37;;;;;;;12.26;45.66;98246.22;5011568;28;20179;-65
2021/03/29 07:50:04;;;;;;;3.67;2.80;;;;;;;12.24;45.91;98243.00;5001584;28;20657;-66
2021/03/29 07:52:35;;;;;;;6.63;3.00;;;;;;;12.25;46.19;98249.06;5010420;28;20270;-66
2021/03/29 07:55:04;;;;;;;4.83;3.10;;;;;;;12.47;45.14;98240.78;5011723;28;20559;-66
2021/03/29 07:57:44;;;;;;;4.37;2.50;;;;;;;12.33;45.07;98251.47;4988840;28;20187;-66
2021/03/29 08:00:25;;;;;;;5.47;2.57;;;;;;;12.58;44.72;98249.06;4994028;28;20210;-66
2021/03/29 08:02:52;;;;;;;3.77;2.50;;;;;;;12.65;44.38;98250.66;4993906;28;20337;-66
2021/03/29 08:05:41;;;;;;;4.93;2.10;;;;;;;12.83;43.94;98245.59;5011540;28;20179;-66
2021/03/29 08:08:37;;;;;;;4.13;2.50;;;;;;;13.04;44.02;98244.53;5011363;28;20183;-67
2021/03/29 08:11:03;;;;;;;4.27;2.23;;;;;;;13.11;43.86;98250.59;4992086;28;20196;-66
2021/03/29 08:13:38;;;;;;;3.70;2.70;;;;;;;13.15;44.54;98251.81;5011033;28;20183;-66
2021/03/29 08:16:06;;;;;;;5.30;2.77;;;;;;;13.29;43.75;98252.63;5011718;28;20175;-66
2021/03/29 08:19:06;;;;;;;5.53;2.57;;;;;;;13.23;43.60;98254.25;5010939;28;20222;-66
2021/03/29 08:21:59;;;;;;;5.33;2.43;;;;;;;13.48;43.34;98253.56;5010464;28;20178;-66
2021/03/29 08:24:35;;;;;;;4.27;2.80;;;;;;;13.50;43.72;98256.78;5010774;28;20183;-70
2021/03/29 08:27:28;;;;;;;12.93;3.03;;;;;;;13.50;42.90;98257.59;5011578;28;20250;-66
2021/03/29 08:29:56;;;;;;;5.33;2.23;;;;;;;13.57;43.09;98257.56;5007795;28;20225;-68
2021/03/29 08:32:24;;;;;;;6.17;2.30;;;;;;;13.68;43.02;98249.81;5010035;28;20187;-66
2021/03/29 08:34:55;;;;;;;3.77;2.47;;;;;;;13.67;43.26;98253.47;5010897;28;20634;-66
2021/03/29 08:37:24;;;;;;;4.87;2.53;;;;;;;13.71;44.22;98252.03;4985155;28;20167;-66
2021/03/29 08:39:52;;;;;;;5.43;2.60;;;;;;;13.76;43.26;98255.88;5010609;28;20267;-66
2021/03/29 08:42:20;;;;;;;2.50;2.20;;;;;;;13.91;43.25;98256.41;5011189;28;20182;-66
2021/03/29 08:44:48;;;;;;;7.17;2.50;;;;;;;13.89;43.13;98256.59;4992566;28;20218;-66
2021/03/29 08:47:25;;;;;;;5.00;2.80;;;;;;;13.88;43.73;98260.25;5011297;28;20244;-66
2021/03/29 08:50:00;;;;;;;3.50;2.80;;;;;;;14.05;43.89;98257.94;5010588;28;20230;-66
2021/03/29 08:52:37;;;;;;;8.17;2.60;;;;;;;14.11;43.76;98259.72;5010436;28;20214;-70
2021/03/29 08:55:03;;;;;;;3.40;2.57;;;;;;;14.27;43.53;98263.66;5011092;28;20183;-66
2021/03/29 08:57:31;;;;;;;4.50;2.17;;;;;;;14.39;44.44;98264.63;4992734;28;20206;-68
2021/03/29 09:00:06;;;;;;;5.37;3.10;;;;;;;14.44;45.19;98267.44;5010746;28;20237;-65
2021/03/29 09:02:32;;;;;;;5.40;2.07;;;;;;;14.63;43.64;98265.69;4993096;28;20190;-66
2021/03/29 09:04:59;;;;;;;6.60;2.63;;;;;;;14.59;43.54;98262.66;5010948;28;20545;-66
2021/03/29 09:07:42;;;;;;;9.13;2.40;;;;;;;14.69;44.05;98262.19;5011045;28;20237;-70
2021/03/29 09:10:23;;;;;;;5.60;2.33;;;;;;;14.80;44.15;98262.28;5010911;28;20612;-66
2021/03/29 09:12:57;;;;;;;5.33;2.60;;;;;;;14.87;43.08;98260.41;5010326;28;20227;-65
2021/03/29 09:15:25;;;;;;;6.13;2.93;;;;;;;14.97;43.38;98267.81;5010807;28;20190;-67
2021/03/29 09:18:04;;;;;;;3.80;2.00;;;;;;;14.97;40.60;98268.63;4994628;28;20183;-66
2021/03/29 09:20:33;;;;;;;7.93;2.08;;;;;;;14.94;42.12;98262.94;5010185;28;20168;-66
2021/03/29 09:22:59;;;;;;;6.87;2.50;;;;;;;14.92;42.49;98265.03;5010294;28;20700;-66
2021/03/29 09:25:34;;;;;;;4.03;2.00;;;;;;;15.02;42.58;98270.59;5011187;28;20187;-66
2021/03/29 09:28:23;;;;;;;7.03;2.20;;;;;;;14.86;43.79;98269.34;5010696;28;20176;-66
2021/03/29 09:30:54;;;;;;;4.80;2.20;;;;;;;14.79;43.39;98268.59;5009913;28;20298;-66
2021/03/29 09:33:21;;;;;;;5.03;1.87;;;;;;;14.83;41.02;98263.66;5010356;28;20207;-65
2021/03/29 09:35:47;;;;;;;6.90;2.23;;;;;;;14.94;42.75;98270.88;5010142;28;20742;-65
2021/03/29 09:38:14;;;;;;;4.93;1.80;;;;;;;15.01;42.46;98276.91;5010854;28;20176;-66
2021/03/29 09:40:40;;;;;;;5.40;1.90;;;;;;;14.94;42.68;98276.16;5010109;28;20175;-66
2021/03/29 09:43:06;;;;;;;4.37;2.20;;;;;;;14.84;42.53;98271.38;5010806;28;20258;-66
2021/03/29 09:45:33;;;;;;;4.67;2.37;;;;;;;14.83;42.31;98275.03;5012572;28;20238;-65
2021/03/29 09:48:03;;;;;;;5.37;1.60;;;;;;;14.90;41.74;98280.25;5014276;28;20175;-66
2021/03/29 09:50:31;;;;;;;5.20;1.93;;;;;;;14.83;41.55;98276.88;5013320;28;20266;-70
2021/03/29 09:53:23;;;;;;;5.07;1.93;;;;;;;14.86;41.31;98266.69;5013429;28;20175;-65
2021/03/29 09:55:55;;;;;;;2.57;1.70;;;;;;;14.92;40.64;98276.38;5013381;28;20197;-66
2021/03/29 09:58:30;;;;;;;6.47;2.07;;;;;;;14.95;40.78;98270.66;5013615;28;20289;-65
2021/03/29 10:01:20;;;;;;;6.60;1.97;;;;;;;15.03;40.57;98269.59;5014136;28;20182;-66
2021/03/29 10:03:57;;;;;;;3.90;1.77;;;;;;;15.05;40.70;98272.78;5007407;28;20657;-67
2021/03/29 10:06:28;;;;;;;2.33;1.60;;;;;;;15.11;41.61;98277.22;5011056;28;20194;-67
2021/03/29 10:09:04;;;;;;;3.93;1.70;;;;;;;15.12;41.41;98273.53;5013681;28;20191;-67
2021/03/29 10:11:49;;;;;;;5.67;1.57;;;;;;;15.24;40.04;98265.72;5013177;28;20618;-71
2021/03/29 10:14:16;;;;;;;5.23;1.87;;;;;;;15.22;39.35;98260.63;5013102;28;21946;-67
2021/03/29 10:16:46;;;;;;;3.80;1.90;;;;;;;15.35;39.56;98265.78;5013140;28;20191;-67
2021/03/29 10:19:14;;;;;;;4.80;1.67;;;;;;;15.38;39.23;98260.03;5013496;28;20248;-66
2021/03/29 10:22:03;;;;;;;2.63;1.57;;;;;;;15.37;39.11;98257.66;5012697;28;20363;-66
2021/03/29 10:24:33;;;;;;;5.87;1.90;;;;;;;15.45;38.65;98251.25;5012574;28;20183;-68
2021/03/29 10:27:05;;;;;;;4.18;1.40;;;;;;;15.60;38.68;98262.28;5013398;28;20242;-67
2021/03/29 10:29:40;;;;;;;5.53;1.70;;;;;;;15.63;38.11;98256.53;5012404;28;20203;-66
2021/03/29 10:32:18;;;;;;;3.20;1.70;;;;;;;15.72;37.66;98260.50;5013191;28;20171;-67
2021/03/29 10:34:45;;;;;;;5.30;1.50;;;;;;;15.76;37.52;98253.75;5012667;28;20225;-66
2021/03/29 10:37:25;;;;;;;5.60;1.67;;;;;;;15.83;37.40;98251.03;5013831;28;20270;-66
2021/03/29 10:39:52;;;;;;;2.88;1.60;;;;;;;15.89;38.23;98245.63;4997586;28;20206;-67
2021/03/29 10:42:20;;;;;;;2.77;1.40;;;;;;;15.98;36.81;98251.41;5013176;28;20566;-68
2021/03/29 10:44:45;;;;;;;3.67;1.40;;;;;;;16.02;35.80;98248.09;5012240;28;20198;-66
2021/03/29 10:47:11;;;;;;;6.20;1.63;;;;;;;16.08;35.41;98249.03;5013819;28;20690;-66
2021/03/29 10:49:38;;;;;;;2.00;1.30;;;;;;;16.11;35.20;98246.72;5012053;28;20563;-66
2021/03/29 10:52:04;;;;;;;2.40;1.20;;;;;;;16.11;35.34;98249.38;5012559;28;20184;-67
2021/03/29 10:54:29;;;;;;;4.60;1.30;;;;;;;16.16;35.80;98246.06;4994032;28;20183;-66
2021/03/29 10:56:54;;;;;;;4.47;1.60;;;;;;;16.22;35.81;98243.31;5011540;28;20179;-67
2021/03/29 10:59:20;;;;;;;5.85;1.77;;;;;;;16.26;35.80;98235.75;4995292;28;20226;-68
2021/03/29 11:01:45;;;;;;;3.25;1.15;;;;;;;16.32;35.50;98242.78;5012182;28;20529;-65
2021/03/29 11:04:11;;;;;;;3.67;1.30;;;;;;;16.40;34.17;98245.06;5012623;28;20226;-67
2021/03/29 11:06:36;;;;;;;2.33;1.33;;;;;;;16.40;34.35;98246.91;5011610;28;20195;-65
2021/03/29 11:09:02;;;;;;;2.90;1.30;;;;;;;16.45;34.52;98241.75;4995227;28;20272;-65
2021/03/29 11:11:27;;;;;;;3.50;1.40;;;;;;;16.51;34.21;98233.69;5012017;28;20543;-65
2021/03/29 11:13:53;;;;;;;3.80;1.25;;;;;;;16.62;35.16;98240.88;5012319;28;20190;-67
2021/03/29 11:16:20;;;;;;;4.03;1.30;;;;;;;16.65;34.10;98239.63;5012518;28;20217;-66
2021/03/29 11:18:46;;;;;;;3.85;1.67;;;;;;;16.62;35.33;98232.94;5012012;28;20705;-65
2021/03/29 11:21:11;;;;;;;3.03;1.50;;;;;;;16.74;35.41;98234.78;5012063;28;20262;-66
2021/03/29 11:23:37;;;;;;;2.78;1.50;;;;;;;16.77;33.92;98237.00;5011543;28;20190;-70
2021/03/29 11:26:03;;;;;;;2.17;1.55;;;;;;;16.75;33.23;98234.56;4994635;28;20657;-70
2021/03/29 11:28:28;;;;;;;2.90;1.33;;;;;;;16.80;33.17;98233.88;5011509;28;20199;-68
2021/03/29 11:30:53;;;;;;;2.75;1.35;;;;;;;16.84;32.96;98232.34;4994651;28;20266;-68
2021/03/29 11:33:20;;;;;;;5.72;1.95;;;;;;;16.93;33.70;98223.84;5011602;28;20179;-67
2021/03/29 11:35:46;;;;;;;4.22;1.50;;;;;;;17.09;33.61;98216.22;5011086;28;20187;-67
2021/03/29 11:38:12;;;;;;;2.53;1.10;;;;;;;17.15;32.44;98213.47;5011575;28;20571;-68
2021/03/29 11:40:37;;;;;;;2.83;1.20;;;;;;;17.21;32.29;98215.19;5011107;28;20215;-67
2021/03/29 11:43:02;;;;;;;3.50;1.50;;;;;;;17.28;32.46;98215.03;5011407;28;20183;-67
2021/03/29 11:45:28;;;;;;;2.28;1.58;;;;;;;17.34;32.30;98217.56;5011377;28;20186;-67
2021/03/29 11:47:53;;;;;;;5.03;1.40;;;;;;;17.42;31.75;98217.19;4994343;28;20229;-75
2021/03/29 11:50:19;;;;;;;2.50;1.58;;;;;;;17.43;31.82;98221.47;4994554;28;20207;-68
2021/03/29 11:52:45;;;;;;;6.50;1.70;;;;;;;17.45;32.67;98223.88;4992978;28;20622;-67
2021/03/29 11:55:12;;;;;;;3.60;1.40;;;;;;;17.42;31.29;98214.56;5011316;28;20267;-67